Time;durP1;ratioP1;P1;durP2;ratioP2;P2;SDS_P1;SDS_P2;PMS_P1;PMS_P2;Temp;Humidity;BMP_temperature;BMP_pressure;BME280_temperature;BME280_humidity;BME280_pressure;Samples;Min_cycle;Max_cycle;Signal;HPM_P1;HPM_P2
2023/10/18 00:00:28;;;;;;;21.27;16.20;;;;;;;;;;5111830;28;20260;-74
2023/10/18 00:02:56;;;;;;;20.77;17.10;;;;;;;;;;5112034;28;20321;-73
2023/10/18 00:05:25;;;;;;;18.80;16.53;;;;;;;;;;5093943;28;20579;-74
2023/10/18 00:07:56;;;;;;;19.63;16.27;;;;;;;;;;5111569;28;20287;-75
2023/10/18 00:10:24;;;;;;;18.53;15.43;;;;;;;;;;5111663;28;20193;-74
2023/10/18 00:12:52;;;;;;;15.80;14.10;;;;;;;;;;5093537;28;20281;-74
2023/10/18 00:15:20;;;;;;;18.93;15.07;;;;;;;;;;5111706;28;20295;-73
2023/10/18 00:17:48;;;;;;;17.63;14.83;;;;;;;;;;5112116;28;20635;-74
2023/10/18 00:20:20;;;;;;;19.93;16.20;;;;;;;;;;5093538;28;20204;-74
2023/10/18 00:22:48;;;;;;;18.23;15.27;;;;;;;;;;5111599;28;20602;-74
2023/10/18 00:25:16;;;;;;;18.27;15.40;;;;;;;;;;5111302;28;20235;-74
2023/10/18 00:27:47;;;;;;;18.83;15.47;;;;;;;;;;5111580;28;20580;-75
2023/10/18 00:30:17;;;;;;;18.30;14.87;;;;;;;;;;5111302;28;20564;-74
2023/10/18 00:32:45;;;;;;;19.70;15.70;;;;;;;;;;5111699;28;20204;-73
2023/10/18 00:35:20;;;;;;;20.43;16.33;;;;;;;;;;5093127;28;20210;-73
2023/10/18 00:37:49;;;;;;;20.00;15.73;;;;;;;;;;5111303;28;20270;-74
2023/10/18 00:43:22;;;;;;;21.70;16.13;;;;;;;;;;5111329;28;20928;-73
2023/10/18 00:45:51;;;;;;;22.93;17.13;;;;;;;;;;5111503;28;20214;-73
2023/10/18 00:48:20;;;;;;;20.83;16.77;;;;;;;;;;5111117;28;20723;-73
2023/10/18 00:50:52;;;;;;;21.13;17.20;;;;;;;;;;5113533;28;20208;-73
2023/10/18 00:53:20;;;;;;;21.10;17.23;;;;;;;;;;5103349;27;20189;-75
2023/10/18 00:55:59;;;;;;;21.90;17.10;;;;;;;;;;5108174;27;20219;-74
2023/10/18 00:58:31;;;;;;;20.77;17.30;;;;;;;;;;5084744;28;20224;-76
2023/10/18 01:01:19;;;;;;;20.80;17.03;;;;;;;;;;5110517;27;20228;-76
2023/10/18 01:03:50;;;;;;;22.23;17.93;;;;;;;;;;5102621;27;20689;-76
2023/10/18 01:06:21;;;;;;;20.90;16.93;;;;;;;;;;5084599;28;20197;-75
2023/10/18 01:08:49;;;;;;;22.83;17.87;;;;;;;;;;5105727;27;20702;-74
2023/10/18 01:11:23;;;;;;;20.10;16.53;;;;;;;;;;5105502;28;20204;-75
2023/10/18 01:13:55;;;;;;;20.63;16.50;;;;;;;;;;5100691;27;20234;-75
2023/10/18 01:16:22;;;;;;;20.57;17.50;;;;;;;;;;5104095;27;20196;-75
2023/10/18 01:18:52;;;;;;;22.17;17.20;;;;;;;;;;5103384;27;20225;-75
2023/10/18 01:21:20;;;;;;;23.57;17.17;;;;;;;;;;5104324;27;20215;-75
2023/10/18 01:23:51;;;;;;;20.17;16.97;;;;;;;;;;5107192;28;20668;-74
2023/10/18 01:26:19;;;;;;;20.77;17.13;;;;;;;;;;5101908;27;20604;-75
2023/10/18 01:28:47;;;;;;;23.83;17.73;;;;;;;;;;5103766;27;20227;-74
2023/10/18 01:31:14;;;;;;;22.67;18.37;;;;;;;;;;5104651;27;20204;-74
2023/10/18 01:33:43;;;;;;;24.70;18.97;;;;;;;;;;5108921;27;20201;-75
2023/10/18 01:36:21;;;;;;;24.30;18.80;;;;;;;;;;5104951;27;20232;-73
2023/10/18 01:38:49;;;;;;;22.00;17.90;;;;;;;;;;5103579;28;20752;-74
2023/10/18 01:41:27;;;;;;;23.47;18.70;;;;;;;;;;5106929;27;20726;-75
2023/10/18 01:44:42;;;;;;;26.37;18.47;;;;;;;;;;5103653;27;20288;-76
2023/10/18 01:46:49;;;;;;;28.07;20.77;;;;;;;;;;5103165;27;20258;-76
2023/10/18 01:49:17;;;;;;;26.43;19.27;;;;;;;;;;5106700;27;20228;-76
2023/10/18 01:51:46;;;;;;;23.90;18.40;;;;;;;;;;5076678;28;20200;-77
2023/10/18 01:54:15;;;;;;;22.80;16.67;;;;;;;;;;5106581;27;20227;-74
2023/10/18 01:56:46;;;;;;;22.60;17.10;;;;;;;;;;5108193;27;20253;-76
2023/10/18 01:59:17;;;;;;;20.93;17.10;;;;;;;;;;5108113;27;20221;-75
2023/10/18 02:01:45;;;;;;;20.57;16.87;;;;;;;;;;5105230;27;20211;-76
2023/10/18 02:04:23;;;;;;;19.70;16.33;;;;;;;;;;5104280;27;20763;-75
2023/10/18 02:07:07;;;;;;;20.67;16.57;;;;;;;;;;5098985;28;20211;-75
2023/10/18 02:09:52;;;;;;;20.00;16.23;;;;;;;;;;5088450;28;20320;-74
2023/10/18 02:12:20;;;;;;;19.47;15.40;;;;;;;;;;5101475;28;20231;-75
2023/10/18 02:14:48;;;;;;;22.23;16.40;;;;;;;;;;5097897;27;20196;-76
2023/10/18 02:17:18;;;;;;;18.57;15.83;;;;;;;;;;5080177;28;20208;-76
2023/10/18 02:19:46;;;;;;;19.87;17.03;;;;;;;;;;5106501;28;20219;-75
2023/10/18 02:22:13;;;;;;;22.57;17.90;;;;;;;;;;5104467;27;20213;-75
2023/10/18 02:24:42;;;;;;;20.00;16.73;;;;;;;;;;5105811;27;20589;-75
2023/10/18 02:27:15;;;;;;;18.60;16.60;;;;;;;;;;5110341;27;20211;-75
2023/10/18 02:29:44;;;;;;;22.37;17.97;;;;;;;;;;5102951;28;20212;-76
2023/10/18 02:34:59;;;;;;;19.77;16.77;;;;;;;;;;5111936;27;20708;-75
2023/10/18 02:37:26;;;;;;;17.63;14.73;;;;;;;;;;5104084;28;20211;-73
2023/10/18 02:40:07;;;;;;;16.37;14.53;;;;;;;;;;5107957;27;20259;-75
2023/10/18 02:42:35;;;;;;;17.77;14.53;;;;;;;;;;5102945;27;20581;-73
2023/10/18 02:45:12;;;;;;;18.13;15.37;;;;;;;;;;5113423;27;20224;-76
2023/10/18 02:47:40;;;;;;;17.27;14.93;;;;;;;;;;5106611;27;20675;-76
2023/10/18 02:50:08;;;;;;;18.83;15.07;;;;;;;;;;5112189;27;20255;-73
2023/10/18 02:52:35;;;;;;;16.40;14.63;;;;;;;;;;5085241;28;20200;-76
2023/10/18 02:55:03;;;;;;;16.10;14.40;;;;;;;;;;5107894;27;20665;-74
2023/10/18 02:57:32;;;;;;;17.83;14.80;;;;;;;;;;5101450;28;20211;-74
2023/10/18 03:00:10;;;;;;;17.93;15.27;;;;;;;;;;5099932;28;20227;-76
2023/10/18 03:02:38;;;;;;;17.60;14.70;;;;;;;;;;5104316;28;20208;-75
2023/10/18 03:05:06;;;;;;;17.80;14.80;;;;;;;;;;5104759;28;20223;-74
2023/10/18 03:07:37;;;;;;;18.13;15.40;;;;;;;;;;5105284;28;20200;-76
2023/10/18 03:10:25;;;;;;;18.83;14.47;;;;;;;;;;5082747;28;20307;-74
2023/10/18 03:12:53;;;;;;;15.83;14.10;;;;;;;;;;5101560;28;20247;-76
2023/10/18 03:15:23;;;;;;;16.40;13.80;;;;;;;;;;5097662;28;20207;-74
2023/10/18 03:17:50;;;;;;;16.17;13.43;;;;;;;;;;5100004;27;20643;-75
2023/10/18 03:20:24;;;;;;;15.47;13.80;;;;;;;;;;5088697;27;20208;-75
2023/10/18 03:22:52;;;;;;;15.17;13.57;;;;;;;;;;5094759;28;20208;-75
2023/10/18 03:25:30;;;;;;;16.63;14.67;;;;;;;;;;5102799;28;20241;-76
2023/10/18 03:27:58;;;;;;;18.13;16.17;;;;;;;;;;5075854;28;20204;-76
2023/10/18 03:33:13;;;;;;;17.93;14.60;;;;;;;;;;5101603;28;20580;-77
2023/10/18 03:35:41;;;;;;;20.63;15.60;;;;;;;;;;5095368;28;20224;-74
2023/10/18 03:38:17;;;;;;;20.07;17.03;;;;;;;;;;5102301;28;20214;-74
2023/10/18 03:40:56;;;;;;;22.90;19.13;;;;;;;;;;5096105;28;20563;-75
2023/10/18 03:43:30;;;;;;;24.07;20.20;;;;;;;;;;5080347;28;20252;-75
2023/10/18 03:48:44;;;;;;;19.07;16.00;;;;;;;;;;5097751;28;20220;-75
2023/10/18 03:51:19;;;;;;;19.53;16.60;;;;;;;;;;5099250;28;20287;-74
2023/10/18 03:53:53;;;;;;;19.83;16.40;;;;;;;;;;5072798;28;20208;-76
2023/10/18 03:56:22;;;;;;;21.53;16.53;;;;;;;;;;5094802;28;20219;-76
2023/10/18 03:58:53;;;;;;;19.70;16.50;;;;;;;;;;5101693;28;20280;-75
2023/10/18 04:01:25;;;;;;;23.83;18.63;;;;;;;;;;5098717;28;20203;-75
2023/10/18 04:03:54;;;;;;;23.13;17.93;;;;;;;;;;5097989;28;20209;-76
2023/10/18 04:06:21;;;;;;;22.27;17.50;;;;;;;;;;5090911;28;20239;-76
2023/10/18 04:08:48;;;;;;;24.53;18.10;;;;;;;;;;5103617;28;20226;-76
2023/10/18 04:11:24;;;;;;;24.07;18.17;;;;;;;;;;5092215;28;20197;-76
2023/10/18 04:13:51;;;;;;;24.97;19.07;;;;;;;;;;5092747;28;20204;-74
2023/10/18 04:16:25;;;;;;;25.67;19.10;;;;;;;;;;5090050;28;20214;-77
2023/10/18 04:18:53;;;;;;;21.97;18.13;;;;;;;;;;5095090;28;20269;-76
2023/10/18 04:21:25;;;;;;;25.80;20.13;;;;;;;;;;5091062;28;20216;-77
2023/10/18 04:23:56;;;;;;;24.80;19.43;;;;;;;;;;5084259;28;20215;-76
2023/10/18 04:26:26;;;;;;;27.47;18.70;;;;;;;;;;5084725;28;20759;-77
2023/10/18 04:29:10;;;;;;;20.07;16.67;;;;;;;;;;5089219;28;20224;-77
2023/10/18 04:31:38;;;;;;;22.27;17.87;;;;;;;;;;5084998;28;20204;-76
2023/10/18 04:34:05;;;;;;;24.33;18.97;;;;;;;;;;5078807;27;20250;-75
2023/10/18 04:36:33;;;;;;;30.83;22.37;;;;;;;;;;5092388;27;20552;-76
2023/10/18 04:39:05;;;;;;;30.70;23.67;;;;;;;;;;5076967;27;20228;-76
2023/10/18 04:41:33;;;;;;;30.87;23.07;;;;;;;;;;5100937;27;20601;-75
2023/10/18 04:44:34;;;;;;;35.53;25.23;;;;;;;;;;5081971;28;20200;-76
2023/10/18 04:46:59;;;;;;;29.07;22.47;;;;;;;;;;5094819;27;20228;-77
2023/10/18 04:52:04;;;;;;;42.23;28.53;;;;;;;;;;5099697;28;20205;-77
2023/10/18 04:54:41;;;;;;;38.00;26.70;;;;;;;;;;5099035;27;20196;-77
2023/10/18 04:57:11;;;;;;;30.77;22.87;;;;;;;;;;5080028;28;20770;-78
2023/10/18 04:59:52;;;;;;;29.67;21.43;;;;;;;;;;5106205;27;20219;-76
2023/10/18 05:02:26;;;;;;;27.10;19.63;;;;;;;;;;5089171;28;20210;-77
2023/10/18 05:04:55;;;;;;;27.00;19.53;;;;;;;;;;5087942;28;20231;-75
2023/10/18 05:07:38;;;;;;;25.40;18.43;;;;;;;;;;5094644;27;20199;-75
2023/10/18 05:10:14;;;;;;;21.73;17.97;;;;;;;;;;5113644;27;20224;-75
2023/10/18 05:12:48;;;;;;;19.93;17.23;;;;;;;;;;5088834;27;20225;-75
2023/10/18 05:15:22;;;;;;;17.80;15.90;;;;;;;;;;5112704;27;20231;-74
2023/10/18 05:17:50;;;;;;;18.53;16.20;;;;;;;;;;5109644;27;20231;-73
2023/10/18 05:22:45;;;;;;;19.73;17.40;;;;;;;;;;5106057;28;20224;-74
2023/10/18 05:28:46;;;;;;;18.07;16.00;;;;;;;;;;5107938;27;20197;-74
2023/10/18 05:38:52;;;;;;;17.90;16.00;;;;;;;;;;5110678;27;20236;-73
2023/10/18 05:41:35;;;;;;;21.17;18.03;;;;;;;;;;5102452;27;20232;-74
2023/10/18 05:44:05;;;;;;;22.00;18.77;;;;;;;;;;5103812;28;20244;-75
2023/10/18 05:46:33;;;;;;;19.40;17.10;;;;;;;;;;5109370;27;20398;-74
2023/10/18 05:49:01;;;;;;;19.03;16.93;;;;;;;;;;5086118;28;20270;-75
2023/10/18 05:51:32;;;;;;;18.80;16.67;;;;;;;;;;5085814;28;20215;-74
2023/10/18 05:54:05;;;;;;;19.07;16.43;;;;;;;;;;5104148;28;20225;-74
2023/10/18 05:56:33;;;;;;;18.10;16.20;;;;;;;;;;5103708;27;20204;-74
2023/10/18 06:01:58;;;;;;;17.50;15.60;;;;;;;;;;5113393;27;20208;-74
2023/10/18 06:04:38;;;;;;;17.47;15.57;;;;;;;;;;5089309;27;20655;-74
2023/10/18 06:07:18;;;;;;;17.43;15.13;;;;;;;;;;5080343;28;20220;-74
2023/10/18 06:09:57;;;;;;;17.07;15.27;;;;;;;;;;5100834;28;20966;-75
2023/10/18 06:12:39;;;;;;;16.87;15.07;;;;;;;;;;5085885;27;20579;-75
2023/10/18 06:15:13;;;;;;;18.57;16.40;;;;;;;;;;5102690;27;20201;-75
2023/10/18 06:17:47;;;;;;;18.33;16.40;;;;;;;;;;5115596;27;20199;-75
2023/10/18 06:20:28;;;;;;;16.67;14.87;;;;;;;;;;5100674;28;20629;-74
2023/10/18 06:25:36;;;;;;;18.07;16.17;;;;;;;;;;5095924;28;20299;-76
2023/10/18 06:28:07;;;;;;;17.80;16.00;;;;;;;;;;5100516;28;20323;-77
2023/10/18 06:30:41;;;;;;;18.10;15.97;;;;;;;;;;5087256;27;21168;-75
2023/10/18 06:33:09;;;;;;;16.40;14.67;;;;;;;;;;5087654;27;20498;-76
2023/10/18 06:35:51;;;;;;;17.70;15.80;;;;;;;;;;5091127;28;20204;-77
2023/10/18 06:38:22;;;;;;;16.90;14.93;;;;;;;;;;5097910;28;20216;-75
2023/10/18 06:40:53;;;;;;;16.60;14.77;;;;;;;;;;5096727;27;20244;-76
2023/10/18 06:43:33;;;;;;;16.80;15.10;;;;;;;;;;5097097;27;20196;-75
2023/10/18 06:46:02;;;;;;;16.37;14.53;;;;;;;;;;5098041;28;20232;-77
2023/10/18 06:48:31;;;;;;;18.80;15.47;;;;;;;;;;5098019;27;20216;-77
2023/10/18 06:50:59;;;;;;;17.20;15.07;;;;;;;;;;5095294;27;20227;-76
2023/10/18 06:53:27;;;;;;;17.97;15.30;;;;;;;;;;5097824;28;20201;-76
2023/10/18 06:56:06;;;;;;;17.00;15.27;;;;;;;;;;5075263;28;20212;-75
2023/10/18 07:01:04;;;;;;;21.07;18.23;;;;;;;;;;5089828;28;20216;-77
2023/10/18 07:03:33;;;;;;;18.93;15.10;;;;;;;;;;5089705;28;20207;-77
2023/10/18 07:06:04;;;;;;;17.87;15.97;;;;;;;;;;5091198;27;20706;-77
2023/10/18 07:08:40;;;;;;;16.83;14.73;;;;;;;;;;5099306;28;20227;-77
2023/10/18 07:11:16;;;;;;;17.00;15.23;;;;;;;;;;5095220;28;20200;-75
2023/10/18 07:13:55;;;;;;;16.20;14.50;;;;;;;;;;5092672;28;21527;-77
2023/10/18 07:16:41;;;;;;;15.97;14.33;;;;;;;;;;5089599;27;20269;-77
2023/10/18 07:25:20;;;;;;;17.77;15.87;;;;;;;;;;5102644;27;20245;-77
2023/10/18 07:28:03;;;;;;;20.80;17.33;;;;;;;;;;5080302;28;20224;-75
2023/10/18 07:30:37;;;;;;;17.80;15.77;;;;;;;;;;5074880;28;20215;-75
2023/10/18 07:33:43;;;;;;;19.87;16.77;;;;;;;;;;5089886;28;20238;-75
2023/10/18 07:36:11;;;;;;;17.50;15.20;;;;;;;;;;5078767;28;20251;-77
2023/10/18 07:38:47;;;;;;;17.27;15.10;;;;;;;;;;5075382;28;20232;-77
2023/10/18 07:41:15;;;;;;;16.93;15.13;;;;;;;;;;5094203;28;20288;-75
2023/10/18 08:11:04;;;;;;;11.53;9.93;;;;;;;;;;5093726;28;20173;-77
2023/10/18 08:13:31;;;;;;;12.80;10.60;;;;;;;;;;5088376;28;20208;-75
2023/10/18 08:16:01;;;;;;;13.70;12.27;;;;;;;;;;5090524;28;20200;-76
2023/10/18 08:18:44;;;;;;;11.73;10.47;;;;;;;;;;5093537;28;20680;-75
2023/10/18 08:21:26;;;;;;;12.67;10.90;;;;;;;;;;5094636;28;20208;-76
2023/10/18 08:23:57;;;;;;;11.77;10.53;;;;;;;;;;5083892;28;20200;-76
2023/10/18 08:26:28;;;;;;;13.30;11.90;;;;;;;;;;5093545;28;22455;-76
2023/10/18 08:28:56;;;;;;;14.07;12.23;;;;;;;;;;5098617;28;20220;-77
2023/10/18 08:31:32;;;;;;;13.87;12.17;;;;;;;;;;5096417;28;20610;-75
2023/10/18 08:34:05;;;;;;;14.40;12.63;;;;;;;;;;5078239;28;20254;-75
2023/10/18 08:36:33;;;;;;;15.00;12.63;;;;;;;;;;5090081;28;20284;-77
2023/10/18 08:39:01;;;;;;;14.77;13.17;;;;;;;;;;5093560;28;20228;-76
2023/10/18 08:41:33;;;;;;;15.03;12.93;;;;;;;;;;5086048;28;20435;-75
2023/10/18 08:44:19;;;;;;;13.93;12.43;;;;;;;;;;5092109;28;20292;-76
2023/10/18 08:47:35;;;;;;;14.80;13.13;;;;;;;;;;5100570;28;20312;-76
2023/10/18 08:49:43;;;;;;;14.20;12.67;;;;;;;;;;5081451;28;20325;-76
2023/10/18 08:52:12;;;;;;;18.67;12.67;;;;;;;;;;5098880;28;20208;-75
2023/10/18 08:54:42;;;;;;;16.10;13.50;;;;;;;;;;5091402;28;20203;-77
2023/10/18 08:57:10;;;;;;;13.30;11.90;;;;;;;;;;5095987;28;20208;-77
2023/10/18 08:59:46;;;;;;;15.47;12.70;;;;;;;;;;5097174;28;20236;-77
2023/10/18 09:02:23;;;;;;;14.63;12.53;;;;;;;;;;5095117;28;20580;-77
2023/10/18 09:04:59;;;;;;;13.87;11.53;;;;;;;;;;5080377;28;20223;-77
2023/10/18 09:07:44;;;;;;;14.80;12.60;;;;;;;;;;5109437;28;20224;-76
2023/10/18 09:15:35;;;;;;;13.77;12.27;;;;;;;;;;5103712;27;20287;-76
2023/10/18 09:18:23;;;;;;;14.07;12.67;;;;;;;;;;5102912;27;20575;-75
2023/10/18 09:20:50;;;;;;;14.10;12.00;;;;;;;;;;5094855;28;20277;-76
2023/10/18 09:23:21;;;;;;;14.00;12.03;;;;;;;;;;5098449;27;20254;-76
2023/10/18 09:25:48;;;;;;;14.80;12.30;;;;;;;;;;5109091;28;20200;-77
2023/10/18 09:30:54;;;;;;;15.70;12.57;;;;;;;;;;5103190;27;20210;-75
2023/10/18 09:33:26;;;;;;;14.43;12.93;;;;;;;;;;5096987;28;20201;-76
2023/10/18 12:55:32;;;;;;;9.13;8.23;;;;;;;;;;5100392;27;20199;-75
2023/10/18 12:57:54;;;;;;;11.05;8.25;;;;;;;;;;5113269;27;20212;-76
2023/10/18 13:00:25;;;;;;;13.40;8.55;;;;;;;;;;5104967;28;20227;-76
2023/10/18 13:05:40;;;;;;;8.65;6.88;;;;;;;;;;5107994;28;20207;-79
2023/10/18 13:08:22;;;;;;;9.95;7.43;;;;;;;;;;5103314;28;20229;-79
2023/10/18 13:13:41;;;;;;;10.15;7.47;;;;;;;;;;5067835;27;20203;-79
2023/10/18 13:16:13;;;;;;;12.30;8.90;;;;;;;;;;5109960;28;20208;-78
2023/10/18 13:18:41;;;;;;;8.73;7.68;;;;;;;;;;5088420;28;20274;-79
2023/10/18 13:21:11;;;;;;;8.77;7.78;;;;;;;;;;5105839;28;20671;-77
2023/10/18 13:23:44;;;;;;;11.73;7.82;;;;;;;;;;5103537;28;20201;-73
2023/10/18 13:26:18;;;;;;;9.43;7.60;;;;;;;;;;5098035;28;20211;-77
2023/10/18 13:31:33;;;;;;;12.95;9.15;;;;;;;;;;5099850;28;20211;-78
2023/10/18 13:34:06;;;;;;;10.10;8.68;;;;;;;;;;5098569;28;20307;-78
2023/10/18 13:36:36;;;;;;;13.30;10.77;;;;;;;;;;5092309;28;20204;-77
2023/10/18 13:39:11;;;;;;;14.93;11.60;;;;;;;;;;5099025;28;20691;-77
2023/10/18 13:41:39;;;;;;;18.03;13.13;;;;;;;;;;5089921;27;20711;-76
2023/10/18 13:44:10;;;;;;;23.00;13.00;;;;;;;;;;5108805;28;20200;-74
2023/10/18 13:46:37;;;;;;;14.63;11.53;;;;;;;;;;5102297;28;20653;-78
2023/10/18 13:49:24;;;;;;;14.87;11.63;;;;;;;;;;5096601;28;20315;-77
2023/10/18 13:51:55;;;;;;;14.30;11.33;;;;;;;;;;5096282;27;20203;-78
2023/10/18 13:54:24;;;;;;;14.97;12.00;;;;;;;;;;5095319;28;20265;-77
2023/10/18 13:56:51;;;;;;;15.70;11.83;;;;;;;;;;5113991;28;20634;-75
2023/10/18 13:59:19;;;;;;;16.90;12.80;;;;;;;;;;5113683;28;20235;-77
2023/10/18 14:01:54;;;;;;;13.00;11.70;;;;;;;;;;5114090;28;20192;-75
2023/10/18 14:04:28;;;;;;;15.83;12.90;;;;;;;;;;5114157;28;20212;-75
2023/10/18 14:06:57;;;;;;;19.10;14.47;;;;;;;;;;5105980;28;20200;-75
2023/10/18 14:09:25;;;;;;;17.07;14.37;;;;;;;;;;5096069;28;20216;-75
2023/10/18 14:11:53;;;;;;;17.17;15.00;;;;;;;;;;5096234;28;20197;-75
2023/10/18 14:14:20;;;;;;;19.20;17.00;;;;;;;;;;5096225;28;20265;-76
2023/10/18 14:16:48;;;;;;;16.40;14.17;;;;;;;;;;5113829;28;20204;-75
2023/10/18 14:19:19;;;;;;;18.73;14.93;;;;;;;;;;5113868;28;20739;-75
2023/10/18 14:21:48;;;;;;;17.27;14.20;;;;;;;;;;5072552;28;20220;-76
2023/10/18 14:24:24;;;;;;;20.63;14.23;;;;;;;;;;5089775;27;20212;-73
2023/10/18 14:26:52;;;;;;;13.47;12.07;;;;;;;;;;5117611;27;20658;-76
2023/10/18 14:29:22;;;;;;;15.37;12.83;;;;;;;;;;5134520;27;20311;-74
2023/10/18 14:31:50;;;;;;;14.87;12.03;;;;;;;;;;5124039;27;20204;-75
2023/10/18 14:34:17;;;;;;;12.50;11.20;;;;;;;;;;5105109;27;20207;-76
2023/10/18 14:36:50;;;;;;;12.97;11.57;;;;;;;;;;5104429;27;20663;-77
2023/10/18 14:39:21;;;;;;;12.80;10.90;;;;;;;;;;5095579;28;20239;-75
2023/10/18 14:42:06;;;;;;;11.07;9.93;;;;;;;;;;5113352;28;20200;-75
2023/10/18 14:44:34;;;;;;;13.33;11.40;;;;;;;;;;5113176;28;20204;-74
2023/10/18 14:47:03;;;;;;;13.63;11.60;;;;;;;;;;5113430;28;20232;-76
2023/10/18 14:49:32;;;;;;;13.13;11.67;;;;;;;;;;5100263;27;20216;-75
2023/10/18 14:51:59;;;;;;;13.70;11.30;;;;;;;;;;5103132;28;20505;-74
2023/10/18 14:54:27;;;;;;;15.30;13.70;;;;;;;;;;5111974;28;20454;-75
2023/10/18 14:56:55;;;;;;;17.10;15.00;;;;;;;;;;5114864;28;20200;-75
2023/10/18 14:59:25;;;;;;;20.47;14.70;;;;;;;;;;5114111;28;20224;-75
2023/10/18 15:01:54;;;;;;;17.17;14.83;;;;;;;;;;5133899;27;20199;-75
2023/10/18 15:04:24;;;;;;;17.37;13.93;;;;;;;;;;5115289;27;20199;-75
2023/10/18 15:06:53;;;;;;;16.60;13.50;;;;;;;;;;5133734;27;20207;-74
2023/10/18 15:09:24;;;;;;;17.07;14.50;;;;;;;;;;5119818;27;20220;-75
2023/10/18 15:11:51;;;;;;;18.27;15.10;;;;;;;;;;5092795;28;20293;-74
2023/10/18 15:14:19;;;;;;;19.23;15.97;;;;;;;;;;5092267;28;20291;-75
2023/10/18 15:16:46;;;;;;;19.03;16.63;;;;;;;;;;5093067;28;20578;-74
2023/10/18 15:19:17;;;;;;;30.50;23.03;;;;;;;;;;5092767;28;20657;-76
2023/10/18 15:21:47;;;;;;;28.13;22.17;;;;;;;;;;5081876;28;20666;-75
2023/10/18 15:24:18;;;;;;;31.63;25.13;;;;;;;;;;5112360;28;20569;-74
2023/10/18 15:26:48;;;;;;;29.73;22.77;;;;;;;;;;5124567;27;20197;-76
2023/10/18 15:29:19;;;;;;;25.27;19.70;;;;;;;;;;5084866;28;20241;-75
2023/10/18 15:31:47;;;;;;;23.87;19.53;;;;;;;;;;5099935;28;20204;-74
2023/10/18 15:34:14;;;;;;;18.90;16.73;;;;;;;;;;5112416;28;20219;-74
2023/10/18 15:36:42;;;;;;;19.77;17.20;;;;;;;;;;5112321;28;20664;-74
2023/10/18 15:39:13;;;;;;;20.27;15.57;;;;;;;;;;5112312;28;20273;-73
2023/10/18 15:41:41;;;;;;;20.67;16.73;;;;;;;;;;5112339;28;20208;-75
2023/10/18 15:44:12;;;;;;;18.10;15.40;;;;;;;;;;5112162;28;20203;-74
2023/10/18 15:46:41;;;;;;;18.30;15.50;;;;;;;;;;5118723;27;20209;-76
2023/10/18 15:49:08;;;;;;;19.63;17.30;;;;;;;;;;5094047;28;20289;-74
2023/10/18 15:51:36;;;;;;;28.40;21.80;;;;;;;;;;5113377;28;20282;-74
2023/10/18 15:54:10;;;;;;;35.73;27.57;;;;;;;;;;5099896;28;20300;-75
2023/10/18 15:56:39;;;;;;;29.20;23.03;;;;;;;;;;5078116;28;20215;-76
2023/10/18 15:59:08;;;;;;;24.60;20.37;;;;;;;;;;5117590;27;20590;-76
2023/10/18 16:01:36;;;;;;;27.57;23.50;;;;;;;;;;5111926;28;20192;-76
2023/10/18 16:04:23;;;;;;;22.23;18.00;;;;;;;;;;5103736;28;20287;-74
2023/10/18 16:06:54;;;;;;;24.90;18.33;;;;;;;;;;5113328;27;20614;-76
2023/10/18 16:09:22;;;;;;;22.80;18.10;;;;;;;;;;5103893;28;20661;-75
2023/10/18 16:11:49;;;;;;;29.30;19.90;;;;;;;;;;5119629;28;20326;-74
2023/10/18 16:14:16;;;;;;;30.90;21.73;;;;;;;;;;5088837;28;20204;-74
2023/10/18 16:16:54;;;;;;;27.80;23.30;;;;;;;;;;5087254;28;20199;-75
2023/10/18 16:19:21;;;;;;;27.60;21.93;;;;;;;;;;5108450;28;20261;-74
2023/10/18 16:21:49;;;;;;;24.77;20.97;;;;;;;;;;5114844;27;20209;-74
2023/10/18 16:24:28;;;;;;;30.63;22.53;;;;;;;;;;5113484;28;20210;-74
2023/10/18 16:26:56;;;;;;;26.73;22.50;;;;;;;;;;5111954;27;20202;-75
2023/10/18 16:29:23;;;;;;;27.70;21.67;;;;;;;;;;5110958;28;20285;-75
2023/10/18 16:31:50;;;;;;;30.17;22.87;;;;;;;;;;5102644;28;20231;-76
2023/10/18 16:34:19;;;;;;;38.03;27.63;;;;;;;;;;5104628;27;20249;-76
2023/10/18 16:36:46;;;;;;;66.83;43.53;;;;;;;;;;5110759;27;20192;-77
2023/10/18 16:39:18;;;;;;;42.43;30.83;;;;;;;;;;5106224;28;20277;-77
2023/10/18 16:41:45;;;;;;;29.47;23.00;;;;;;;;;;5114572;27;20200;-75
2023/10/18 16:44:14;;;;;;;29.33;22.73;;;;;;;;;;5100298;28;20226;-75
2023/10/18 16:46:41;;;;;;;25.23;19.23;;;;;;;;;;5115202;28;20227;-75
2023/10/18 16:49:15;;;;;;;23.73;19.30;;;;;;;;;;5095266;28;20225;-76
2023/10/18 16:51:42;;;;;;;29.33;21.60;;;;;;;;;;5095321;28;20229;-76
2023/10/18 16:54:11;;;;;;;27.27;19.20;;;;;;;;;;5077020;28;20664;-76
2023/10/18 16:56:41;;;;;;;24.60;19.17;;;;;;;;;;5111184;27;20249;-76
2023/10/18 16:59:10;;;;;;;29.13;21.07;;;;;;;;;;5102852;27;20219;-75
2023/10/18 17:01:38;;;;;;;26.90;19.53;;;;;;;;;;5119947;27;20199;-75
2023/10/18 17:04:05;;;;;;;25.70;19.67;;;;;;;;;;5097124;28;20208;-75
2023/10/18 17:06:33;;;;;;;26.63;20.23;;;;;;;;;;5097568;28;20352;-77
2023/10/18 17:09:00;;;;;;;26.47;20.43;;;;;;;;;;5124820;27;20687;-76
2023/10/18 17:11:32;;;;;;;25.30;20.10;;;;;;;;;;5116330;28;20668;-75
2023/10/18 17:14:00;;;;;;;29.10;22.70;;;;;;;;;;5115393;28;20188;-76
2023/10/18 17:16:29;;;;;;;28.70;20.40;;;;;;;;;;5098758;28;20212;-76
2023/10/18 17:19:12;;;;;;;29.37;21.13;;;;;;;;;;5106754;28;20276;-75
2023/10/18 17:21:39;;;;;;;24.33;19.60;;;;;;;;;;5123148;27;20196;-75
2023/10/18 17:24:09;;;;;;;25.70;19.67;;;;;;;;;;5127453;27;20289;-75
2023/10/18 17:29:58;;;;;;;26.97;21.03;;;;;;;;;;5098482;27;20707;-79
2023/10/18 17:32:30;;;;;;;29.83;21.37;;;;;;;;;;5093903;28;20966;-76
2023/10/18 17:34:59;;;;;;;26.27;21.63;;;;;;;;;;5096154;28;20296;-79
2023/10/18 17:37:27;;;;;;;28.30;22.93;;;;;;;;;;5097538;28;20261;-75
2023/10/18 17:39:55;;;;;;;41.23;30.03;;;;;;;;;;5098841;27;20224;-78
2023/10/18 17:42:22;;;;;;;35.50;28.10;;;;;;;;;;5101014;28;20211;-79
2023/10/18 17:44:49;;;;;;;30.40;22.30;;;;;;;;;;5097494;28;20254;-79
2023/10/18 17:47:16;;;;;;;29.33;21.33;;;;;;;;;;5105431;27;20201;-76
2023/10/18 17:49:44;;;;;;;24.90;20.00;;;;;;;;;;5100359;27;20291;-78
2023/10/18 17:52:12;;;;;;;42.37;28.33;;;;;;;;;;5095710;28;20755;-74
2023/10/18 17:54:39;;;;;;;37.67;26.80;;;;;;;;;;5089900;27;20208;-79
2023/10/18 17:57:10;;;;;;;28.87;21.80;;;;;;;;;;5101269;28;20203;-76
2023/10/18 17:59:37;;;;;;;28.40;22.90;;;;;;;;;;5103176;28;20661;-79
2023/10/18 18:02:05;;;;;;;25.60;20.27;;;;;;;;;;5092494;27;20219;-76
2023/10/18 18:04:33;;;;;;;28.57;23.43;;;;;;;;;;5094240;28;20800;-80
2023/10/18 18:07:01;;;;;;;33.23;26.77;;;;;;;;;;5089893;28;20208;-78
2023/10/18 18:09:30;;;;;;;27.50;20.20;;;;;;;;;;5090023;27;20297;-78
2023/10/18 18:11:58;;;;;;;27.07;20.87;;;;;;;;;;5107630;28;20291;-74
2023/10/18 18:14:25;;;;;;;25.03;19.43;;;;;;;;;;5103850;27;20578;-76
2023/10/18 18:16:53;;;;;;;23.97;19.73;;;;;;;;;;5096457;28;20204;-77
2023/10/18 18:19:21;;;;;;;24.50;20.03;;;;;;;;;;5111513;27;20602;-76
2023/10/18 18:21:49;;;;;;;29.17;21.93;;;;;;;;;;5112935;27;20309;-76
2023/10/18 18:24:34;;;;;;;26.10;21.37;;;;;;;;;;5101505;28;20231;-75
2023/10/18 18:27:01;;;;;;;27.90;23.07;;;;;;;;;;5101942;27;20208;-74
2023/10/18 18:29:28;;;;;;;34.13;24.70;;;;;;;;;;5110503;27;20234;-75
2023/10/18 18:35:14;;;;;;;30.33;24.57;;;;;;;;;;5113789;27;20249;-74
2023/10/18 18:37:43;;;;;;;34.23;26.30;;;;;;;;;;5119429;27;20299;-76
2023/10/18 18:40:11;;;;;;;31.67;25.00;;;;;;;;;;5109670;28;20231;-76
2023/10/18 18:42:39;;;;;;;28.90;25.33;;;;;;;;;;5118798;27;20272;-76
2023/10/18 18:45:10;;;;;;;28.47;24.37;;;;;;;;;;5115894;27;20209;-77
2023/10/18 18:47:37;;;;;;;26.63;23.27;;;;;;;;;;5107628;28;20192;-76
2023/10/18 18:50:08;;;;;;;26.73;23.83;;;;;;;;;;5105286;28;20240;-75
2023/10/18 18:52:42;;;;;;;29.07;23.77;;;;;;;;;;5098232;28;20191;-74
2023/10/18 18:55:10;;;;;;;31.93;25.40;;;;;;;;;;5113289;28;20212;-75
2023/10/18 18:57:59;;;;;;;32.90;26.50;;;;;;;;;;5113390;28;20725;-75
2023/10/18 19:00:26;;;;;;;33.13;27.23;;;;;;;;;;5097462;28;20661;-75
2023/10/18 19:02:55;;;;;;;33.97;27.20;;;;;;;;;;5112224;28;20294;-75
2023/10/18 19:05:24;;;;;;;32.03;26.63;;;;;;;;;;5101885;28;20212;-74
2023/10/18 19:07:54;;;;;;;36.27;27.57;;;;;;;;;;5092612;28;20205;-75
2023/10/18 19:10:21;;;;;;;29.97;24.37;;;;;;;;;;5117891;27;20841;-75
2023/10/18 19:12:50;;;;;;;39.97;33.43;;;;;;;;;;5109254;28;20210;-75
2023/10/18 19:15:18;;;;;;;37.03;29.93;;;;;;;;;;5110109;28;20723;-74
2023/10/18 19:17:49;;;;;;;38.47;32.83;;;;;;;;;;5098279;27;20212;-76
2023/10/18 19:20:18;;;;;;;40.43;32.03;;;;;;;;;;5100303;28;20596;-75
2023/10/18 19:22:50;;;;;;;40.03;31.50;;;;;;;;;;5089359;28;20200;-74
2023/10/18 19:25:18;;;;;;;31.27;25.67;;;;;;;;;;5112819;27;20204;-75
2023/10/18 19:27:46;;;;;;;31.43;25.17;;;;;;;;;;5102000;28;20211;-75
2023/10/18 19:30:16;;;;;;;35.67;28.10;;;;;;;;;;5090898;28;20598;-75
2023/10/18 19:32:43;;;;;;;38.77;28.47;;;;;;;;;;5102542;27;20192;-77